Portada
METAR-TAF:

METAR-TAF

Aeroports :

Ubon Ratchathani, Tailàndia

latitud: 15-15N, longitud: 104-52E, altitud: 123 m

Observació

L'informe es va fer fa 52 minuts, a les 01:00 UTC
Vent 5 kt del Sud/Sud-Est, variant entre Est i Sud/Sud-Oest
Temperatura 31°C
Humitat 66%
Pressió 1011 hPa
Visibilitat: 8000 m
Escasses núvols a una alçada de 3000 ft

METAR: VTUU 300100Z 15005KT 090V200 8000 FEW030 31/24 Q1011 NOSIG

Hora: 08:52 (01:52 UTC)

Pronòstic

L'informe es va fer fa 2 hores i 52 minuts, a les 23:00 UTC
Pronòstic vàlid del 30 a les 00 UTC al 30 a les 24 UTC
Vent 5 kt del Sud
Visibilitat: 9000 m
Escasses núvols a una alçada de 3000 ft

TAF: VTUU 292300Z 3000/3024 17005KT 9000 FEW030

Observacions i pronòstics meteorològics de més de 4000 aeroports (METAR i TAF).

Les estacions disponibles són els punts grocs i vermells al mapa.

Posi el ratolí al punt desitjat per veure el nom de l'estació.

Feu clic per veure les observacions i els pronòstics meteorològics.

Per canviar el mapa: feu clic els botons verds amb una creu de color negre per apropar; al botó verd amb un guió per allunyar la imatge; o en les fletxes verdes per a mapes adjacents.


METAR-TAF: